This is the latest recevied weather packets stored in our database for station/object SR6WXJG. If no packets are shown the sender has not sent any weather packets the latest 10 day(s).
| Time | Temp. | Humidity | Pressure | Rain* | Wind** | Luminosity | Snow |
|---|---|---|---|---|---|---|---|
| 1777835085 | 18.89° C | 48% | 1013 hPa | 0 mm | - | - | - |
| 1777834184 | 18.89° C | 48% | 1013 hPa | 0 mm | - | - | - |
| 1777833284 | 19.44° C | 48% | 1013 hPa | 0 mm | - | - | - |
| 1777832384 | 21.11° C | 35% | 1013 hPa | 0 mm | - | - | - |
| 1777831483 | 21.11° C | 46% | 1013 hPa | 0 mm | - | - | - |
| 1777830583 | 21.67° C | 46% | 1013 hPa | 0 mm | - | - | - |
| 1777829683 | 21.67° C | 46% | 1013 hPa | 0 mm | - | - | - |
| 1777828782 | 22.78° C | 32% | 1013 hPa | 0 mm | - | - | - |
| 1777827882 | 23.33° C | 31% | 1013 hPa | 0 mm | - | - | - |
| 1777826982 | 23.33° C | 41% | 1013 hPa | 0 mm | - | - | - |
| 1777826081 | 23.33° C | 41% | 1013 hPa | 0 mm | - | - | - |
| 1777825181 | 24.44° C | 29% | 1013 hPa | 0 mm | - | - | - |
| 1777824281 | 24.44° C | 28% | 1013 hPa | 0 mm | - | - | - |
| 1777823380 | 24.44° C | 37% | 1013 hPa | 0 mm | - | - | - |
| 1777822480 | 24.44° C | 37% | 1013 hPa | 0 mm | - | - | - |
| 1777821580 | 25° C | 28% | 1013 hPa | 0 mm | - | - | - |
| 1777820679 | 25° C | 27% | 1013 hPa | 0 mm | - | - | - |
| 1777819779 | 25° C | 34% | 1013 hPa | 0 mm | - | - | - |
| 1777818879 | 25° C | 34% | 1013 hPa | 0 mm | - | - | - |
| 1777817978 | 25.56° C | 26% | 1014 hPa | 0 mm | - | - | - |
| 1777817078 | 25° C | 31% | 1014 hPa | 0 mm | - | - | - |
| 1777816178 | 25° C | 31% | 1014 hPa | 0 mm | - | - | - |
| 1777815277 | 25° C | 32% | 1014 hPa | 0 mm | - | - | - |
| 1777814377 | 25.56° C | 28% | 1014 hPa | 0 mm | - | - | - |
| 1777813477 | 25° C | 32% | 1015 hPa | 0 mm | - | - | - |
* Rain latest hour (hover to see other rain measurements)
** Current wind speed in m/s (hover to see current wind gust speed)